sensor_id;sensor_type;location;lat;lon;timestamp;temperature;humidity
3614;DHT22;1821;50.936;6.854;2022-07-29T00:00:17;20.10;99.90
3614;DHT22;1821;50.936;6.854;2022-07-29T00:00:59;20.00;99.90
3614;DHT22;1821;50.936;6.854;2022-07-29T00:01:41;20.00;99.90
3614;DHT22;1821;50.936;6.854;2022-07-29T00:02:23;20.10;99.90
3614;DHT22;1821;50.936;6.854;2022-07-29T00:03:05;20.00;99.90
3614;DHT22;1821;50.936;6.854;2022-07-29T00:03:47;20.00;99.90
3614;DHT22;1821;50.936;6.854;2022-07-29T00:04:29;20.00;99.90
3614;DHT22;1821;50.936;6.854;2022-07-29T00:05:11;20.00;99.90
3614;DHT22;1821;50.936;6.854;2022-07-29T00:05:55;20.00;99.90
3614;DHT22;1821;50.936;6.854;2022-07-29T00:06:37;20.00;99.90
3614;DHT22;1821;50.936;6.854;2022-07-29T00:07:19;19.90;99.90
3614;DHT22;1821;50.936;6.854;2022-07-29T00:08:01;19.90;99.90
3614;DHT22;1821;50.936;6.854;2022-07-29T00:08:42;19.90;99.90
3614;DHT22;1821;50.936;6.854;2022-07-29T00:09:24;19.90;99.90
3614;DHT22;1821;50.936;6.854;2022-07-29T00:10:06;19.90;99.90
3614;DHT22;1821;50.936;6.854;2022-07-29T00:10:48;20.00;99.90
3614;DHT22;1821;50.936;6.854;2022-07-29T00:11:30;19.90;99.90
3614;DHT22;1821;50.936;6.854;2022-07-29T00:12:11;19.90;99.90
3614;DHT22;1821;50.936;6.854;2022-07-29T00:12:54;19.90;99.90
3614;DHT22;1821;50.936;6.854;2022-07-29T00:13:36;19.90;99.90
3614;DHT22;1821;50.936;6.854;2022-07-29T00:14:17;19.90;99.90
3614;DHT22;1821;50.936;6.854;2022-07-29T00:14:59;19.90;99.90
3614;DHT22;1821;50.936;6.854;2022-07-29T00:15:41;19.90;99.90
3614;DHT22;1821;50.936;6.854;2022-07-29T00:16:23;20.00;99.90
3614;DHT22;1821;50.936;6.854;2022-07-29T00:17:05;19.90;99.90
3614;DHT22;1821;50.936;6.854;2022-07-29T00:17:47;19.90;99.90
3614;DHT22;1821;50.936;6.854;2022-07-29T00:18:28;19.90;99.90
3614;DHT22;1821;50.936;6.854;2022-07-29T00:19:10;20.00;99.90
3614;DHT22;1821;50.936;6.854;2022-07-29T00:19:53;20.00;99.90
3614;DHT22;1821;50.936;6.854;2022-07-29T00:20:34;19.90;99.90
3614;DHT22;1821;50.936;6.854;2022-07-29T00:21:16;19.90;99.90
3614;DHT22;1821;50.936;6.854;2022-07-29T00:21:58;19.90;99.90
3614;DHT22;1821;50.936;6.854;2022-07-29T00:22:40;19.90;99.90
3614;DHT22;1821;50.936;6.854;2022-07-29T00:23:22;19.90;99.90
3614;DHT22;1821;50.936;6.854;2022-07-29T00:24:04;19.90;99.90
3614;DHT22;1821;50.936;6.854;2022-07-29T00:24:48;19.90;99.90
3614;DHT22;1821;50.936;6.854;2022-07-29T00:25:30;19.90;99.90
3614;DHT22;1821;50.936;6.854;2022-07-29T00:26:14;19.90;99.90
3614;DHT22;1821;50.936;6.854;2022-07-29T00:26:56;19.90;99.90
3614;DHT22;1821;50.936;6.854;2022-07-29T00:27:37;19.80;99.90
3614;DHT22;1821;50.936;6.854;2022-07-29T00:28:19;19.80;99.90
3614;DHT22;1821;50.936;6.854;2022-07-29T00:29:03;19.90;99.90
3614;DHT22;1821;50.936;6.854;2022-07-29T00:30:06;19.80;99.90
3614;DHT22;1821;50.936;6.854;2022-07-29T00:30:49;19.80;99.90
3614;DHT22;1821;50.936;6.854;2022-07-29T00:31:30;19.80;99.90
3614;DHT22;1821;50.936;6.854;2022-07-29T00:32:12;19.80;99.90
3614;DHT22;1821;50.936;6.854;2022-07-29T00:32:54;19.80;99.90
3614;DHT22;1821;50.936;6.854;2022-07-29T00:33:36;19.70;99.90
3614;DHT22;1821;50.936;6.854;2022-07-29T00:34:17;19.80;99.90
3614;DHT22;1821;50.936;6.854;2022-07-29T00:35:18;19.80;99.90
3614;DHT22;1821;50.936;6.854;2022-07-29T00:36:18;19.80;99.90
3614;DHT22;1821;50.936;6.854;2022-07-29T00:37:02;19.80;99.90
3614;DHT22;1821;50.936;6.854;2022-07-29T00:37:44;19.80;99.90
3614;DHT22;1821;50.936;6.854;2022-07-29T00:38:25;19.80;99.90
3614;DHT22;1821;50.936;6.854;2022-07-29T00:39:07;19.80;99.90
3614;DHT22;1821;50.936;6.854;2022-07-29T00:39:49;19.80;99.90
3614;DHT22;1821;50.936;6.854;2022-07-29T00:40:31;19.80;99.90
3614;DHT22;1821;50.936;6.854;2022-07-29T00:41:13;19.80;99.90
3614;DHT22;1821;50.936;6.854;2022-07-29T00:41:55;19.80;99.90
3614;DHT22;1821;50.936;6.854;2022-07-29T00:42:47;19.80;99.90
3614;DHT22;1821;50.936;6.854;2022-07-29T00:43:29;19.80;99.90
3614;DHT22;1821;50.936;6.854;2022-07-29T00:44:11;19.80;99.90
3614;DHT22;1821;50.936;6.854;2022-07-29T00:44:53;19.80;99.90
3614;DHT22;1821;50.936;6.854;2022-07-29T00:45:35;19.80;99.90
3614;DHT22;1821;50.936;6.854;2022-07-29T00:46:17;19.80;99.90
3614;DHT22;1821;50.936;6.854;2022-07-29T00:46:59;19.80;99.90
3614;DHT22;1821;50.936;6.854;2022-07-29T00:47:41;19.80;99.90
3614;DHT22;1821;50.936;6.854;2022-07-29T00:48:22;19.80;99.90
3614;DHT22;1821;50.936;6.854;2022-07-29T00:49:04;19.80;99.90
3614;DHT22;1821;50.936;6.854;2022-07-29T00:49:46;19.80;99.90
3614;DHT22;1821;50.936;6.854;2022-07-29T00:50:28;19.80;99.90
3614;DHT22;1821;50.936;6.854;2022-07-29T00:51:10;19.80;99.90
3614;DHT22;1821;50.936;6.854;2022-07-29T00:51:52;19.80;99.90
3614;DHT22;1821;50.936;6.854;2022-07-29T00:52:36;19.80;99.90
3614;DHT22;1821;50.936;6.854;2022-07-29T00:53:19;19.80;99.90
3614;DHT22;1821;50.936;6.854;2022-07-29T00:54:02;19.80;99.90
3614;DHT22;1821;50.936;6.854;2022-07-29T00:54:44;19.70;99.90
3614;DHT22;1821;50.936;6.854;2022-07-29T00:55:26;19.70;99.90
3614;DHT22;1821;50.936;6.854;2022-07-29T00:56:08;19.70;99.90
3614;DHT22;1821;50.936;6.854;2022-07-29T00:56:49;19.70;99.90
3614;DHT22;1821;50.936;6.854;2022-07-29T00:57:32;19.70;99.90
3614;DHT22;1821;50.936;6.854;2022-07-29T00:58:14;19.70;99.90
3614;DHT22;1821;50.936;6.854;2022-07-29T00:58:57;19.70;99.90
3614;DHT22;1821;50.936;6.854;2022-07-29T00:59:39;19.70;99.90
3614;DHT22;1821;50.936;6.854;2022-07-29T01:00:23;19.70;99.90
3614;DHT22;1821;50.936;6.854;2022-07-29T01:01:06;19.70;99.90
3614;DHT22;1821;50.936;6.854;2022-07-29T01:01:47;19.70;99.90
3614;DHT22;1821;50.936;6.854;2022-07-29T01:02:29;19.70;99.90
3614;DHT22;1821;50.936;6.854;2022-07-29T01:03:11;19.70;99.90
3614;DHT22;1821;50.936;6.854;2022-07-29T01:03:53;19.60;99.90
3614;DHT22;1821;50.936;6.854;2022-07-29T01:04:35;19.70;99.90
3614;DHT22;1821;50.936;6.854;2022-07-29T01:05:20;19.70;99.90
3614;DHT22;1821;50.936;6.854;2022-07-29T01:06:02;19.70;99.90
3614;DHT22;1821;50.936;6.854;2022-07-29T01:06:44;19.70;99.90
3614;DHT22;1821;50.936;6.854;2022-07-29T01:07:27;19.70;99.90
3614;DHT22;1821;50.936;6.854;2022-07-29T01:08:11;19.70;99.90
3614;DHT22;1821;50.936;6.854;2022-07-29T01:08:53;19.70;99.90
3614;DHT22;1821;50.936;6.854;2022-07-29T01:09:37;19.70;99.90
3614;DHT22;1821;50.936;6.854;2022-07-29T01:10:27;19.70;99.90
3614;DHT22;1821;50.936;6.854;2022-07-29T01:11:10;19.70;99.90
3614;DHT22;1821;50.936;6.854;2022-07-29T01:11:52;19.70;99.90
3614;DHT22;1821;50.936;6.854;2022-07-29T01:12:36;19.70;99.90
3614;DHT22;1821;50.936;6.854;2022-07-29T01:13:19;19.70;99.90
3614;DHT22;1821;50.936;6.854;2022-07-29T01:14:01;19.70;99.90
3614;DHT22;1821;50.936;6.854;2022-07-29T01:14:44;19.70;99.90
3614;DHT22;1821;50.936;6.854;2022-07-29T01:15:27;19.70;99.90
3614;DHT22;1821;50.936;6.854;2022-07-29T01:16:32;19.70;99.90
3614;DHT22;1821;50.936;6.854;2022-07-29T01:17:26;19.70;99.90
3614;DHT22;1821;50.936;6.854;2022-07-29T01:18:16;19.70;99.90
3614;DHT22;1821;50.936;6.854;2022-07-29T01:20:34;19.70;99.90
3614;DHT22;1821;50.936;6.854;2022-07-29T01:25:01;19.60;99.90
3614;DHT22;1821;50.936;6.854;2022-07-29T01:30:02;19.60;99.90
3614;DHT22;1821;50.936;6.854;2022-07-29T01:30:46;19.60;99.90
3614;DHT22;1821;50.936;6.854;2022-07-29T01:32:43;19.60;99.90
3614;DHT22;1821;50.936;6.854;2022-07-29T01:33:28;19.60;99.90
3614;DHT22;1821;50.936;6.854;2022-07-29T01:35:05;19.60;99.90
3614;DHT22;1821;50.936;6.854;2022-07-29T01:35:47;19.60;99.90
3614;DHT22;1821;50.936;6.854;2022-07-29T01:37:18;19.50;99.90
3614;DHT22;1821;50.936;6.854;2022-07-29T01:38:09;19.50;99.90
3614;DHT22;1821;50.936;6.854;2022-07-29T01:39:00;19.50;99.90
3614;DHT22;1821;50.936;6.854;2022-07-29T01:39:46;19.50;99.90
3614;DHT22;1821;50.936;6.854;2022-07-29T01:40:40;19.50;99.90
3614;DHT22;1821;50.936;6.854;2022-07-29T01:41:25;19.50;99.90
3614;DHT22;1821;50.936;6.854;2022-07-29T01:43:20;19.50;99.90
3614;DHT22;1821;50.936;6.854;2022-07-29T01:44:11;19.50;99.90
3614;DHT22;1821;50.936;6.854;2022-07-29T01:45:49;19.50;99.90
3614;DHT22;1821;50.936;6.854;2022-07-29T01:46:39;19.50;99.90
3614;DHT22;1821;50.936;6.854;2022-07-29T01:47:25;19.50;99.90
3614;DHT22;1821;50.936;6.854;2022-07-29T01:48:11;19.50;99.90
3614;DHT22;1821;50.936;6.854;2022-07-29T01:48:57;19.50;99.90
3614;DHT22;1821;50.936;6.854;2022-07-29T01:49:46;19.50;99.90
3614;DHT22;1821;50.936;6.854;2022-07-29T01:50:40;19.50;99.90
3614;DHT22;1821;50.936;6.854;2022-07-29T01:51:32;19.50;99.90
3614;DHT22;1821;50.936;6.854;2022-07-29T01:52:27;19.50;99.90
3614;DHT22;1821;50.936;6.854;2022-07-29T01:53:16;20.70;99.90
3614;DHT22;1821;50.936;6.854;2022-07-29T01:54:10;19.50;99.90
3614;DHT22;1821;50.936;6.854;2022-07-29T01:54:57;19.50;99.90
3614;DHT22;1821;50.936;6.854;2022-07-29T01:55:42;19.50;99.90
3614;DHT22;1821;50.936;6.854;2022-07-29T01:56:25;19.50;99.90
3614;DHT22;1821;50.936;6.854;2022-07-29T01:57:15;19.50;99.90
3614;DHT22;1821;50.936;6.854;2022-07-29T01:58:00;19.50;99.90
3614;DHT22;1821;50.936;6.854;2022-07-29T01:58:43;19.50;99.90
3614;DHT22;1821;50.936;6.854;2022-07-29T01:59:26;19.50;99.90
3614;DHT22;1821;50.936;6.854;2022-07-29T02:00:12;19.50;99.90
3614;DHT22;1821;50.936;6.854;2022-07-29T02:00:56;19.40;99.90
3614;DHT22;1821;50.936;6.854;2022-07-29T02:01:40;19.40;99.90
3614;DHT22;1821;50.936;6.854;2022-07-29T02:02:24;19.40;99.90
3614;DHT22;1821;50.936;6.854;2022-07-29T02:03:10;19.40;99.90
3614;DHT22;1821;50.936;6.854;2022-07-29T02:03:53;19.40;99.90
3614;DHT22;1821;50.936;6.854;2022-07-29T02:04:37;19.30;99.90
3614;DHT22;1821;50.936;6.854;2022-07-29T02:05:22;19.30;99.90
3614;DHT22;1821;50.936;6.854;2022-07-29T02:06:07;19.40;99.90
3614;DHT22;1821;50.936;6.854;2022-07-29T02:06:53;19.40;99.90
3614;DHT22;1821;50.936;6.854;2022-07-29T02:07:36;19.40;99.90
3614;DHT22;1821;50.936;6.854;2022-07-29T02:08:19;19.40;99.90
3614;DHT22;1821;50.936;6.854;2022-07-29T02:09:02;19.40;99.90
3614;DHT22;1821;50.936;6.854;2022-07-29T02:09:50;19.40;99.90
3614;DHT22;1821;50.936;6.854;2022-07-29T02:10:34;19.40;99.90
3614;DHT22;1821;50.936;6.854;2022-07-29T02:11:16;19.30;99.90
3614;DHT22;1821;50.936;6.854;2022-07-29T02:11:59;19.30;99.90
3614;DHT22;1821;50.936;6.854;2022-07-29T02:12:43;19.30;99.90
3614;DHT22;1821;50.936;6.854;2022-07-29T02:13:31;19.30;99.90
3614;DHT22;1821;50.936;6.854;2022-07-29T02:14:15;19.20;99.90
3614;DHT22;1821;50.936;6.854;2022-07-29T02:15:01;19.20;99.90
3614;DHT22;1821;50.936;6.854;2022-07-29T02:15:44;19.20;99.90
3614;DHT22;1821;50.936;6.854;2022-07-29T02:16:30;19.10;99.90
3614;DHT22;1821;50.936;6.854;2022-07-29T02:17:13;19.10;99.90
3614;DHT22;1821;50.936;6.854;2022-07-29T02:18:05;19.20;99.90
3614;DHT22;1821;50.936;6.854;2022-07-29T02:18:51;19.10;99.90
3614;DHT22;1821;50.936;6.854;2022-07-29T02:19:34;19.20;99.90
3614;DHT22;1821;50.936;6.854;2022-07-29T02:20:19;19.20;99.90
3614;DHT22;1821;50.936;6.854;2022-07-29T02:21:01;19.20;99.90
3614;DHT22;1821;50.936;6.854;2022-07-29T02:21:45;19.20;99.90
3614;DHT22;1821;50.936;6.854;2022-07-29T02:22:30;19.20;99.90
3614;DHT22;1821;50.936;6.854;2022-07-29T02:23:15;19.20;99.90
3614;DHT22;1821;50.936;6.854;2022-07-29T02:24:01;19.20;99.90
3614;DHT22;1821;50.936;6.854;2022-07-29T02:24:44;19.30;99.90
3614;DHT22;1821;50.936;6.854;2022-07-29T02:25:26;19.20;99.90
3614;DHT22;1821;50.936;6.854;2022-07-29T02:26:19;19.30;99.90
3614;DHT22;1821;50.936;6.854;2022-07-29T02:27:02;19.30;99.90
3614;DHT22;1821;50.936;6.854;2022-07-29T02:27:47;19.30;99.90
3614;DHT22;1821;50.936;6.854;2022-07-29T02:28:30;19.30;99.90
3614;DHT22;1821;50.936;6.854;2022-07-29T02:29:14;19.30;99.90
3614;DHT22;1821;50.936;6.854;2022-07-29T02:29:57;19.30;99.90
3614;DHT22;1821;50.936;6.854;2022-07-29T02:30:42;19.20;99.90
3614;DHT22;1821;50.936;6.854;2022-07-29T02:31:26;19.30;99.90
3614;DHT22;1821;50.936;6.854;2022-07-29T02:32:10;19.20;99.90
3614;DHT22;1821;50.936;6.854;2022-07-29T02:32:53;19.20;99.90
3614;DHT22;1821;50.936;6.854;2022-07-29T02:33:36;19.20;99.90
3614;DHT22;1821;50.936;6.854;2022-07-29T02:34:20;19.20;99.90
3614;DHT22;1821;50.936;6.854;2022-07-29T02:35:03;19.20;99.90
3614;DHT22;1821;50.936;6.854;2022-07-29T02:35:47;19.10;99.90
3614;DHT22;1821;50.936;6.854;2022-07-29T02:36:29;19.10;99.90
3614;DHT22;1821;50.936;6.854;2022-07-29T02:37:12;19.10;99.90
3614;DHT22;1821;50.936;6.854;2022-07-29T02:37:55;19.10;99.90
3614;DHT22;1821;50.936;6.854;2022-07-29T02:38:56;19.00;99.90
3614;DHT22;1821;50.936;6.854;2022-07-29T02:39:43;19.00;99.90
3614;DHT22;1821;50.936;6.854;2022-07-29T02:40:26;19.00;99.90
3614;DHT22;1821;50.936;6.854;2022-07-29T02:41:10;18.90;99.90
3614;DHT22;1821;50.936;6.854;2022-07-29T02:42:01;19.00;99.90
3614;DHT22;1821;50.936;6.854;2022-07-29T02:42:43;19.00;99.90
3614;DHT22;1821;50.936;6.854;2022-07-29T02:43:26;19.00;99.90
3614;DHT22;1821;50.936;6.854;2022-07-29T02:44:15;19.00;99.90
3614;DHT22;1821;50.936;6.854;2022-07-29T02:44:58;19.00;99.90
3614;DHT22;1821;50.936;6.854;2022-07-29T02:45:39;19.00;99.90
3614;DHT22;1821;50.936;6.854;2022-07-29T02:46:31;19.00;99.90
3614;DHT22;1821;50.936;6.854;2022-07-29T02:47:33;19.00;99.90
3614;DHT22;1821;50.936;6.854;2022-07-29T02:48:31;18.90;99.90
3614;DHT22;1821;50.936;6.854;2022-07-29T02:49:40;18.90;99.90
3614;DHT22;1821;50.936;6.854;2022-07-29T02:50:31;18.80;99.90
3614;DHT22;1821;50.936;6.854;2022-07-29T02:51:28;18.80;99.90
3614;DHT22;1821;50.936;6.854;2022-07-29T02:53:15;18.70;99.90
3614;DHT22;1821;50.936;6.854;2022-07-29T02:54:02;18.70;99.90
3614;DHT22;1821;50.936;6.854;2022-07-29T02:54:56;18.80;99.90
3614;DHT22;1821;50.936;6.854;2022-07-29T02:56:09;18.80;99.90
3614;DHT22;1821;50.936;6.854;2022-07-29T02:56:53;18.80;99.90
3614;DHT22;1821;50.936;6.854;2022-07-29T02:57:42;18.80;99.90
3614;DHT22;1821;50.936;6.854;2022-07-29T02:58:40;18.90;99.90
3614;DHT22;1821;50.936;6.854;2022-07-29T02:59:26;18.80;99.90
3614;DHT22;1821;50.936;6.854;2022-07-29T03:00:10;18.90;99.90
3614;DHT22;1821;50.936;6.854;2022-07-29T03:00:53;18.90;99.90
3614;DHT22;1821;50.936;6.854;2022-07-29T03:01:40;18.80;99.90
3614;DHT22;1821;50.936;6.854;2022-07-29T03:02:25;18.80;99.90
3614;DHT22;1821;50.936;6.854;2022-07-29T03:03:12;18.70;99.90
3614;DHT22;1821;50.936;6.854;2022-07-29T03:03:55;18.70;99.90
3614;DHT22;1821;50.936;6.854;2022-07-29T03:04:39;18.70;99.90
3614;DHT22;1821;50.936;6.854;2022-07-29T03:05:22;18.70;99.90
3614;DHT22;1821;50.936;6.854;2022-07-29T03:06:05;18.70;99.90
3614;DHT22;1821;50.936;6.854;2022-07-29T03:06:48;18.60;99.90
3614;DHT22;1821;50.936;6.854;2022-07-29T03:07:31;18.70;99.90
3614;DHT22;1821;50.936;6.854;2022-07-29T03:08:15;18.70;99.90
3614;DHT22;1821;50.936;6.854;2022-07-29T03:08:58;18.70;99.90
3614;DHT22;1821;50.936;6.854;2022-07-29T03:09:41;18.70;99.90
3614;DHT22;1821;50.936;6.854;2022-07-29T03:10:26;18.70;99.90
3614;DHT22;1821;50.936;6.854;2022-07-29T03:11:08;18.70;99.90
3614;DHT22;1821;50.936;6.854;2022-07-29T03:11:51;18.60;99.90
3614;DHT22;1821;50.936;6.854;2022-07-29T03:12:36;18.60;99.90
3614;DHT22;1821;50.936;6.854;2022-07-29T03:13:19;18.60;99.90
3614;DHT22;1821;50.936;6.854;2022-07-29T03:14:01;18.60;99.90
3614;DHT22;1821;50.936;6.854;2022-07-29T03:14:44;18.60;99.90
3614;DHT22;1821;50.936;6.854;2022-07-29T03:15:27;18.60;99.90
3614;DHT22;1821;50.936;6.854;2022-07-29T03:16:09;18.70;99.90
3614;DHT22;1821;50.936;6.854;2022-07-29T03:16:52;18.60;99.90
3614;DHT22;1821;50.936;6.854;2022-07-29T03:17:34;18.50;99.90
3614;DHT22;1821;50.936;6.854;2022-07-29T03:18:15;18.60;99.90
3614;DHT22;1821;50.936;6.854;2022-07-29T03:18:58;18.60;99.90
3614;DHT22;1821;50.936;6.854;2022-07-29T03:19:40;18.60;99.90
3614;DHT22;1821;50.936;6.854;2022-07-29T03:20:23;18.60;99.90
3614;DHT22;1821;50.936;6.854;2022-07-29T03:21:05;18.60;99.90
3614;DHT22;1821;50.936;6.854;2022-07-29T03:21:47;18.60;99.90
3614;DHT22;1821;50.936;6.854;2022-07-29T03:22:29;18.60;99.90
3614;DHT22;1821;50.936;6.854;2022-07-29T03:23:11;18.60;99.90
3614;DHT22;1821;50.936;6.854;2022-07-29T03:23:52;18.50;99.90
3614;DHT22;1821;50.936;6.854;2022-07-29T03:24:35;18.50;99.90
3614;DHT22;1821;50.936;6.854;2022-07-29T03:25:19;18.60;99.90
3614;DHT22;1821;50.936;6.854;2022-07-29T03:26:01;18.50;99.90
3614;DHT22;1821;50.936;6.854;2022-07-29T03:26:43;18.60;99.90
3614;DHT22;1821;50.936;6.854;2022-07-29T03:27:24;18.50;99.90
3614;DHT22;1821;50.936;6.854;2022-07-29T03:28:06;18.50;99.90
3614;DHT22;1821;50.936;6.854;2022-07-29T03:28:48;18.50;99.90
3614;DHT22;1821;50.936;6.854;2022-07-29T03:29:30;18.50;99.90
3614;DHT22;1821;50.936;6.854;2022-07-29T03:30:15;18.40;99.90
3614;DHT22;1821;50.936;6.854;2022-07-29T03:31:02;18.40;99.90
3614;DHT22;1821;50.936;6.854;2022-07-29T03:31:46;18.40;99.90
3614;DHT22;1821;50.936;6.854;2022-07-29T03:32:28;18.40;99.90
3614;DHT22;1821;50.936;6.854;2022-07-29T03:33:10;18.40;99.90
3614;DHT22;1821;50.936;6.854;2022-07-29T03:33:54;18.40;99.90
3614;DHT22;1821;50.936;6.854;2022-07-29T03:34:36;18.40;99.90
3614;DHT22;1821;50.936;6.854;2022-07-29T03:35:20;18.50;99.90
3614;DHT22;1821;50.936;6.854;2022-07-29T03:36:01;18.50;99.90
3614;DHT22;1821;50.936;6.854;2022-07-29T03:36:44;18.50;99.90
3614;DHT22;1821;50.936;6.854;2022-07-29T03:37:26;18.50;99.90
3614;DHT22;1821;50.936;6.854;2022-07-29T03:38:07;18.40;99.90
3614;DHT22;1821;50.936;6.854;2022-07-29T03:38:50;18.40;99.90
3614;DHT22;1821;50.936;6.854;2022-07-29T03:39:36;18.40;99.90
3614;DHT22;1821;50.936;6.854;2022-07-29T03:40:30;18.40;99.90
3614;DHT22;1821;50.936;6.854;2022-07-29T03:41:13;18.40;99.90
3614;DHT22;1821;50.936;6.854;2022-07-29T03:41:56;18.40;99.90
3614;DHT22;1821;50.936;6.854;2022-07-29T03:42:41;18.40;99.90
3614;DHT22;1821;50.936;6.854;2022-07-29T03:43:24;18.40;99.90
3614;DHT22;1821;50.936;6.854;2022-07-29T03:44:09;18.40;99.90
3614;DHT22;1821;50.936;6.854;2022-07-29T03:44:51;18.40;99.90
3614;DHT22;1821;50.936;6.854;2022-07-29T03:45:34;18.40;99.90
3614;DHT22;1821;50.936;6.854;2022-07-29T03:46:17;18.60;99.90
3614;DHT22;1821;50.936;6.854;2022-07-29T03:47:02;18.40;99.90
3614;DHT22;1821;50.936;6.854;2022-07-29T03:47:50;18.40;99.90
3614;DHT22;1821;50.936;6.854;2022-07-29T03:48:42;18.40;99.90
3614;DHT22;1821;50.936;6.854;2022-07-29T03:49:26;18.40;99.90
3614;DHT22;1821;50.936;6.854;2022-07-29T03:50:11;18.40;99.90
3614;DHT22;1821;50.936;6.854;2022-07-29T03:50:56;18.40;99.90
3614;DHT22;1821;50.936;6.854;2022-07-29T03:51:38;18.40;99.90
3614;DHT22;1821;50.936;6.854;2022-07-29T03:52:21;18.40;99.90
3614;DHT22;1821;50.936;6.854;2022-07-29T03:53:03;18.40;99.90
3614;DHT22;1821;50.936;6.854;2022-07-29T03:53:45;18.30;99.90
3614;DHT22;1821;50.936;6.854;2022-07-29T03:54:26;18.30;99.90
3614;DHT22;1821;50.936;6.854;2022-07-29T03:55:09;18.30;99.90
3614;DHT22;1821;50.936;6.854;2022-07-29T03:55:54;18.30;99.90
3614;DHT22;1821;50.936;6.854;2022-07-29T03:56:40;18.30;99.90
3614;DHT22;1821;50.936;6.854;2022-07-29T03:57:28;18.40;99.90
3614;DHT22;1821;50.936;6.854;2022-07-29T03:58:13;18.30;99.90
3614;DHT22;1821;50.936;6.854;2022-07-29T03:58:55;18.30;99.90
3614;DHT22;1821;50.936;6.854;2022-07-29T03:59:38;18.30;99.90
3614;DHT22;1821;50.936;6.854;2022-07-29T04:00:22;18.30;99.90
3614;DHT22;1821;50.936;6.854;2022-07-29T04:01:05;18.30;99.90
3614;DHT22;1821;50.936;6.854;2022-07-29T04:01:48;18.30;99.90
3614;DHT22;1821;50.936;6.854;2022-07-29T04:02:31;18.30;99.90
3614;DHT22;1821;50.936;6.854;2022-07-29T04:03:13;18.30;99.90
3614;DHT22;1821;50.936;6.854;2022-07-29T04:03:56;18.20;99.90
3614;DHT22;1821;50.936;6.854;2022-07-29T04:04:38;18.20;99.90
3614;DHT22;1821;50.936;6.854;2022-07-29T04:05:20;18.20;99.90
3614;DHT22;1821;50.936;6.854;2022-07-29T04:06:05;18.20;99.90
3614;DHT22;1821;50.936;6.854;2022-07-29T04:06:47;18.20;99.90
3614;DHT22;1821;50.936;6.854;2022-07-29T04:07:29;18.30;99.90
3614;DHT22;1821;50.936;6.854;2022-07-29T04:08:11;18.30;99.90
3614;DHT22;1821;50.936;6.854;2022-07-29T04:08:53;18.20;99.90
3614;DHT22;1821;50.936;6.854;2022-07-29T04:09:34;18.20;99.90
3614;DHT22;1821;50.936;6.854;2022-07-29T04:10:16;18.20;99.90
3614;DHT22;1821;50.936;6.854;2022-07-29T04:11:11;18.30;99.90
3614;DHT22;1821;50.936;6.854;2022-07-29T04:11:53;18.20;99.90
3614;DHT22;1821;50.936;6.854;2022-07-29T04:12:44;18.30;99.90
3614;DHT22;1821;50.936;6.854;2022-07-29T04:13:26;18.30;99.90
3614;DHT22;1821;50.936;6.854;2022-07-29T04:14:07;18.30;99.90
3614;DHT22;1821;50.936;6.854;2022-07-29T04:14:49;18.20;99.90
3614;DHT22;1821;50.936;6.854;2022-07-29T04:15:31;18.20;99.90
3614;DHT22;1821;50.936;6.854;2022-07-29T04:16:13;18.20;99.90
3614;DHT22;1821;50.936;6.854;2022-07-29T04:16:55;18.20;99.90
3614;DHT22;1821;50.936;6.854;2022-07-29T04:17:37;18.20;99.90
3614;DHT22;1821;50.936;6.854;2022-07-29T04:18:19;18.20;99.90
3614;DHT22;1821;50.936;6.854;2022-07-29T04:19:01;18.30;99.90
3614;DHT22;1821;50.936;6.854;2022-07-29T04:19:43;18.20;99.90
3614;DHT22;1821;50.936;6.854;2022-07-29T04:20:25;18.30;99.90
3614;DHT22;1821;50.936;6.854;2022-07-29T04:21:07;18.20;99.90
3614;DHT22;1821;50.936;6.854;2022-07-29T04:21:48;18.20;99.90
3614;DHT22;1821;50.936;6.854;2022-07-29T04:22:30;18.20;99.90
3614;DHT22;1821;50.936;6.854;2022-07-29T04:23:12;18.20;99.90
3614;DHT22;1821;50.936;6.854;2022-07-29T04:23:54;18.20;99.90
3614;DHT22;1821;50.936;6.854;2022-07-29T04:24:36;18.20;99.90
3614;DHT22;1821;50.936;6.854;2022-07-29T04:25:18;18.20;99.90
3614;DHT22;1821;50.936;6.854;2022-07-29T04:25:59;18.20;99.90
3614;DHT22;1821;50.936;6.854;2022-07-29T04:26:42;18.20;99.90
3614;DHT22;1821;50.936;6.854;2022-07-29T04:27:24;18.20;99.90
3614;DHT22;1821;50.936;6.854;2022-07-29T04:28:07;18.20;99.90
3614;DHT22;1821;50.936;6.854;2022-07-29T04:28:49;18.20;99.90
3614;DHT22;1821;50.936;6.854;2022-07-29T04:29:30;18.20;99.90
3614;DHT22;1821;50.936;6.854;2022-07-29T04:30:12;18.10;99.90
3614;DHT22;1821;50.936;6.854;2022-07-29T04:30:54;18.10;99.90
3614;DHT22;1821;50.936;6.854;2022-07-29T04:31:36;18.10;99.90
3614;DHT22;1821;50.936;6.854;2022-07-29T04:32:17;18.10;99.90
3614;DHT22;1821;50.936;6.854;2022-07-29T04:33:04;18.20;99.90
3614;DHT22;1821;50.936;6.854;2022-07-29T04:33:46;18.20;99.90
3614;DHT22;1821;50.936;6.854;2022-07-29T04:34:27;18.20;99.90
3614;DHT22;1821;50.936;6.854;2022-07-29T04:35:09;18.20;99.90
3614;DHT22;1821;50.936;6.854;2022-07-29T04:35:51;18.20;99.90
3614;DHT22;1821;50.936;6.854;2022-07-29T04:36:36;18.30;99.90
3614;DHT22;1821;50.936;6.854;2022-07-29T04:37:18;18.20;99.90
3614;DHT22;1821;50.936;6.854;2022-07-29T04:38:00;18.50;99.90
3614;DHT22;1821;50.936;6.854;2022-07-29T04:38:41;18.30;99.90
3614;DHT22;1821;50.936;6.854;2022-07-29T04:39:24;18.30;99.90
3614;DHT22;1821;50.936;6.854;2022-07-29T04:40:10;18.20;99.90
3614;DHT22;1821;50.936;6.854;2022-07-29T04:40:52;18.20;99.90
3614;DHT22;1821;50.936;6.854;2022-07-29T04:41:35;18.20;99.90
3614;DHT22;1821;50.936;6.854;2022-07-29T04:42:17;18.20;99.90
3614;DHT22;1821;50.936;6.854;2022-07-29T04:43:08;18.20;99.90
3614;DHT22;1821;50.936;6.854;2022-07-29T04:43:52;18.20;99.90
3614;DHT22;1821;50.936;6.854;2022-07-29T04:44:34;18.20;99.90
3614;DHT22;1821;50.936;6.854;2022-07-29T04:45:20;18.10;99.90
3614;DHT22;1821;50.936;6.854;2022-07-29T04:46:03;18.20;99.90
3614;DHT22;1821;50.936;6.854;2022-07-29T04:46:45;18.20;99.90
3614;DHT22;1821;50.936;6.854;2022-07-29T04:47:27;18.20;99.90
3614;DHT22;1821;50.936;6.854;2022-07-29T04:48:09;18.20;99.90
3614;DHT22;1821;50.936;6.854;2022-07-29T04:48:50;18.20;99.90
3614;DHT22;1821;50.936;6.854;2022-07-29T04:49:32;18.20;99.90
3614;DHT22;1821;50.936;6.854;2022-07-29T04:50:14;18.20;99.90
3614;DHT22;1821;50.936;6.854;2022-07-29T04:50:56;18.30;99.90
3614;DHT22;1821;50.936;6.854;2022-07-29T04:51:39;18.30;99.90
3614;DHT22;1821;50.936;6.854;2022-07-29T04:52:21;18.20;99.90
3614;DHT22;1821;50.936;6.854;2022-07-29T04:53:03;18.20;99.90
3614;DHT22;1821;50.936;6.854;2022-07-29T04:53:44;18.20;99.90
3614;DHT22;1821;50.936;6.854;2022-07-29T04:54:27;18.10;99.90
3614;DHT22;1821;50.936;6.854;2022-07-29T04:55:09;18.20;99.90
3614;DHT22;1821;50.936;6.854;2022-07-29T04:55:51;18.20;99.90
3614;DHT22;1821;50.936;6.854;2022-07-29T04:56:32;18.20;99.90
3614;DHT22;1821;50.936;6.854;2022-07-29T04:57:14;18.20;99.90
3614;DHT22;1821;50.936;6.854;2022-07-29T04:57:56;18.20;99.90
3614;DHT22;1821;50.936;6.854;2022-07-29T04:58:39;18.20;99.90
3614;DHT22;1821;50.936;6.854;2022-07-29T04:59:21;18.20;99.90
3614;DHT22;1821;50.936;6.854;2022-07-29T05:00:04;18.20;99.90
3614;DHT22;1821;50.936;6.854;2022-07-29T05:00:46;18.30;99.90
3614;DHT22;1821;50.936;6.854;2022-07-29T05:01:28;18.20;99.90
3614;DHT22;1821;50.936;6.854;2022-07-29T05:02:10;18.20;99.90
3614;DHT22;1821;50.936;6.854;2022-07-29T05:02:52;18.20;99.90
3614;DHT22;1821;50.936;6.854;2022-07-29T05:03:35;18.20;99.90